createdAt,value
2023-10-31T00:09:15.949Z,6.30
2023-10-31T00:24:16.753Z,2.60
2023-10-31T00:39:17.491Z,1.60
2023-10-31T00:54:18.240Z,1.10
2023-10-31T01:09:18.994Z,1.20
2023-10-31T01:24:19.710Z,1.10
2023-10-31T01:39:20.448Z,1.10
2023-10-31T01:54:21.288Z,0.90
2023-10-31T02:09:21.530Z,0.90
2023-10-31T02:24:22.148Z,1.00
2023-10-31T02:39:22.924Z,0.80
2023-10-31T02:54:23.682Z,0.80
2023-10-31T03:09:24.425Z,0.90
2023-10-31T03:24:25.176Z,0.90
2023-10-31T03:39:25.884Z,0.90
2023-10-31T03:54:26.606Z,1.00
2023-10-31T04:09:27.365Z,0.90
2023-10-31T04:24:28.135Z,1.20
2023-10-31T04:39:28.835Z,1.10
2023-10-31T04:54:29.505Z,1.60
2023-10-31T05:09:30.116Z,1.60
2023-10-31T05:24:30.736Z,1.60
2023-10-31T05:39:31.341Z,1.60
2023-10-31T05:54:31.901Z,1.70
2023-10-31T06:09:32.580Z,1.60
2023-10-31T06:24:33.109Z,1.70
2023-10-31T06:39:33.574Z,1.90
2023-10-31T06:54:34.008Z,1.80
2023-10-31T07:09:34.511Z,1.60
2023-10-31T07:24:35.027Z,1.60
2023-10-31T07:39:35.656Z,1.70
2023-10-31T07:54:36.169Z,2.00
2023-10-31T08:09:36.699Z,1.50
2023-10-31T08:24:37.212Z,1.30
2023-10-31T08:39:37.684Z,1.30
2023-10-31T08:54:38.271Z,1.50
2023-10-31T09:09:38.740Z,1.40
2023-10-31T09:24:39.129Z,1.40
2023-10-31T09:39:39.646Z,1.30
2023-10-31T09:54:40.123Z,1.40
2023-10-31T10:09:40.549Z,1.30
2023-10-31T10:24:41.742Z,1.40
2023-10-31T10:39:42.063Z,1.30
2023-10-31T10:54:42.435Z,1.40
2023-10-31T11:09:42.729Z,1.60
2023-10-31T11:24:43.069Z,1.30
2023-10-31T11:39:43.452Z,1.30
2023-10-31T11:54:44.623Z,1.40
2023-10-31T12:09:45.076Z,1.30
2023-10-31T12:24:45.508Z,1.30
2023-10-31T12:39:45.839Z,1.30
2023-10-31T12:54:46.207Z,1.30
2023-10-31T13:09:46.596Z,1.50
2023-10-31T13:24:47.556Z,1.50
2023-10-31T13:39:47.453Z,1.40
2023-10-31T13:54:47.842Z,1.30
2023-10-31T14:09:48.217Z,1.90
2023-10-31T14:24:48.615Z,1.30
2023-10-31T14:39:49.061Z,1.30
2023-10-31T14:54:49.326Z,1.90
2023-10-31T15:09:49.695Z,1.80
2023-10-31T15:24:49.977Z,1.70
2023-10-31T15:39:50.285Z,1.70
2023-10-31T15:54:50.757Z,2.30
2023-10-31T16:09:51.190Z,1.50
2023-10-31T16:24:52.088Z,2.10
2023-10-31T16:39:52.492Z,2.00
2023-10-31T16:54:52.833Z,2.10
2023-10-31T17:09:53.326Z,1.90
2023-10-31T17:24:55.127Z,2.20
2023-10-31T17:39:54.272Z,2.00
2023-10-31T17:54:54.773Z,1.90
2023-10-31T18:09:55.385Z,2.00
2023-10-31T18:24:55.993Z,1.80
2023-10-31T18:39:56.746Z,2.00
2023-10-31T18:54:57.384Z,2.20
2023-10-31T19:09:58.045Z,2.90
2023-10-31T19:24:58.635Z,2.90
2023-10-31T19:39:59.299Z,3.20
2023-10-31T19:55:00.005Z,3.30
2023-10-31T20:10:00.748Z,3.20
2023-10-31T20:25:01.558Z,3.10
2023-10-31T20:40:02.277Z,2.50
2023-10-31T20:55:03.008Z,2.30
2023-10-31T21:10:03.803Z,2.10
2023-10-31T21:25:04.501Z,2.30
2023-10-31T21:40:05.329Z,1.80
2023-10-31T21:55:05.683Z,1.90
2023-10-31T22:10:05.872Z,1.70
2023-10-31T22:25:06.628Z,1.70
2023-10-31T22:40:07.354Z,1.50
2023-10-31T22:55:08.084Z,1.70
2023-10-31T23:10:08.947Z,1.40
2023-10-31T23:25:09.665Z,1.40
2023-10-31T23:40:10.412Z,1.40
2023-10-31T23:55:11.123Z,1.30
